Strona główna
METAR-TAF:

METAR-TAF

Lotnisko :

Port lotniczy Yap

Yap, Mikronezja

Szerokość geograficzna: 09-29N, Długość geograficzna: 138-05E, wysokość: 28 m

Aktualna obserwacja pogody

Raport powstał 23 minut temu, godzina 11:54 UTC
Wiatr 7 kt od północny wschód
Temperatura 27°C
Wilgotność 79%
Ciśnienie 1015 hPa
Widzialność: 19.3 km
Mało chmury na wysokości 1600 ft
Przerywane chmury na wysokości 30000 ft

METAR: PTYA 181154Z 05007KT 12SM FEW016 BKN300 27/23 A2998 RMK SLP154 8/101 T02720228 10289 20272 52022

czas: 22:17 (12:17 UTC)

Prognoza

Raport powstał 56 minut temu, godzina 11:21 UTC
Prognoza ważna od 18 godzina 12 UTC do 19 godzina 12 UTC
Wiatr 11 kt od wschodnio-północny wschód
Widzialność: 10 km
Mało chmury na wysokości 1800 ft
Rozproszone chmury na wysokości 13000 ft

TAF: PTYA 181121Z 1812/1912 07011KT P6SM FEW018 SCT130

Obserwacja i prognoza pogody dla ponad 4000 lotnisk (raport METAR i TAF).

Dostępne stacje oznaczono żółtymi i czerwonymi punktami na mapie.

Najedź kursorem aby zobaczyć nazwę stacji.

Kliknij aby zobaczyć obserwacje i prognozy pogody.

Aby zmienić mapę: kliknij na zielony przycisk z czarnym krzyżykiem, aby powiększyć; na zielony przycisk z myślnikiem, aby pomniejszyć; na zielone strzałki, aby przejść do map sąsiednich.


METAR-TAF: